createdAt,value
2018-07-04T00:01:50.626Z,19.80
2018-07-04T00:04:36.803Z,20.10
2018-07-04T00:07:22.970Z,20.20
2018-07-04T00:10:09.150Z,20.30
2018-07-04T00:12:55.249Z,20.40
2018-07-04T00:15:41.389Z,20.40
2018-07-04T00:18:27.709Z,20.40
2018-07-04T00:21:14.410Z,20.40
2018-07-04T00:24:00.470Z,20.30
2018-07-04T00:26:47.131Z,20.10
2018-07-04T00:29:33.135Z,20.10
2018-07-04T00:32:19.266Z,20.20
2018-07-04T00:35:07.203Z,20.10
2018-07-04T00:37:53.410Z,20.10
2018-07-04T00:40:40.194Z,20.00
2018-07-04T00:43:20.294Z,20.10
2018-07-04T00:46:06.438Z,19.90
2018-07-04T00:48:52.798Z,19.50
2018-07-04T00:51:39.214Z,19.40
2018-07-04T00:54:25.495Z,19.30
2018-07-04T00:57:12.262Z,19.30
2018-07-04T00:59:52.126Z,19.10
2018-07-04T01:02:38.286Z,18.90
2018-07-04T01:05:24.314Z,18.90
2018-07-04T01:08:10.510Z,18.80
2018-07-04T01:10:57.318Z,18.80
2018-07-04T01:13:43.386Z,18.70
2018-07-04T01:16:29.402Z,18.80
2018-07-04T01:19:15.338Z,19.20
2018-07-04T01:22:01.472Z,19.10
2018-07-04T01:24:41.647Z,18.90
2018-07-04T01:27:27.670Z,18.80
2018-07-04T01:30:13.901Z,18.70
2018-07-04T01:32:59.978Z,18.70
2018-07-04T01:35:46.163Z,18.80
2018-07-04T01:38:32.110Z,19.00
2018-07-04T01:41:18.305Z,19.10
2018-07-04T01:44:04.426Z,19.00
2018-07-04T01:46:50.661Z,19.00
2018-07-04T01:49:36.678Z,18.80
2018-07-04T01:52:23.539Z,18.60
2018-07-04T01:55:09.529Z,18.80
2018-07-04T01:57:56.020Z,19.00
2018-07-04T02:00:42.023Z,19.20
2018-07-04T02:03:28.218Z,19.20
2018-07-04T02:06:14.286Z,19.10
2018-07-04T02:09:01.015Z,19.20
2018-07-04T02:11:47.055Z,19.20
2018-07-04T02:14:33.226Z,19.10
2018-07-04T02:17:19.281Z,19.10
2018-07-04T02:20:05.364Z,19.00
2018-07-04T02:22:53.489Z,18.90
2018-07-04T02:25:40.849Z,18.60
2018-07-04T02:28:28.238Z,18.30
2018-07-04T02:31:14.559Z,18.20
2018-07-04T02:34:00.935Z,18.20
2018-07-04T02:36:40.959Z,18.30
2018-07-04T02:39:27.221Z,18.10
2018-07-04T02:42:13.322Z,17.80
2018-07-04T02:44:59.517Z,17.60
2018-07-04T02:47:45.678Z,17.70
2018-07-04T02:50:31.846Z,17.80
2018-07-04T02:53:18.014Z,17.60
2018-07-04T02:56:04.196Z,17.40
2018-07-04T02:58:50.350Z,17.20
2018-07-04T03:01:36.555Z,17.20
2018-07-04T03:04:22.736Z,17.10
2018-07-04T03:07:09.013Z,17.30
2018-07-04T03:09:54.966Z,17.40
2018-07-04T03:12:41.002Z,17.50
2018-07-04T03:15:27.037Z,17.50
2018-07-04T03:18:13.197Z,17.50
2018-07-04T03:20:59.556Z,17.50
2018-07-04T03:23:45.690Z,17.40
2018-07-04T03:26:26.327Z,17.30
2018-07-04T03:29:12.322Z,17.40
2018-07-04T03:31:58.519Z,17.30
2018-07-04T03:34:44.553Z,17.30
2018-07-04T03:37:31.007Z,17.50
2018-07-04T03:40:17.099Z,17.50
2018-07-04T03:43:03.274Z,17.40
2018-07-04T03:45:49.323Z,17.20
2018-07-04T03:48:36.279Z,17.20
2018-07-04T03:51:24.738Z,17.10
2018-07-04T03:54:10.766Z,17.20
2018-07-04T03:56:56.871Z,17.40
2018-07-04T03:59:43.328Z,17.30
2018-07-04T04:02:29.486Z,17.30
2018-07-04T04:05:15.811Z,17.40
2018-07-04T04:08:02.143Z,17.40
2018-07-04T04:10:42.623Z,17.40
2018-07-04T04:13:29.350Z,17.50
2018-07-04T04:16:15.397Z,17.60
2018-07-04T04:19:01.594Z,17.80
2018-07-04T04:21:47.793Z,18.10
2018-07-04T04:24:33.760Z,19.10
2018-07-04T04:27:14.258Z,20.50
2018-07-04T04:30:00.223Z,22.00
2018-07-04T04:32:46.339Z,23.40
2018-07-04T04:35:32.414Z,24.60
2018-07-04T04:38:18.590Z,25.30
2018-07-04T04:41:04.808Z,25.60
2018-07-04T04:43:51.679Z,26.00
2018-07-04T04:46:37.768Z,26.50
2018-07-04T04:49:23.965Z,26.40
2018-07-04T04:52:09.995Z,26.30
2018-07-04T04:54:56.775Z,25.90
2018-07-04T04:57:42.883Z,25.60
2018-07-04T05:00:28.970Z,26.50
2018-07-04T05:03:15.258Z,27.00
2018-07-04T05:06:01.504Z,27.00
2018-07-04T05:08:47.694Z,26.70
2018-07-04T05:11:33.858Z,26.40
2018-07-04T05:14:19.898Z,25.50
2018-07-04T05:17:06.695Z,25.20
2018-07-04T05:19:52.807Z,24.80
2018-07-04T05:22:39.036Z,25.00
2018-07-04T05:25:25.154Z,25.60
2018-07-04T05:28:12.700Z,25.10
2018-07-04T05:30:59.626Z,24.40
2018-07-04T05:33:46.402Z,23.60
2018-07-04T05:36:33.323Z,23.20
2018-07-04T05:39:13.370Z,23.20
2018-07-04T05:41:59.293Z,23.40
2018-07-04T05:44:45.317Z,23.80
2018-07-04T05:47:31.548Z,24.60
2018-07-04T05:50:17.594Z,25.80
2018-07-04T05:53:03.998Z,27.70
2018-07-04T05:55:50.272Z,28.70
2018-07-04T05:58:36.334Z,27.20
2018-07-04T06:01:22.542Z,25.80
2018-07-04T06:04:08.595Z,25.40
2018-07-04T06:06:55.075Z,26.30
2018-07-04T06:09:41.118Z,26.30
2018-07-04T06:12:27.291Z,26.70
2018-07-04T06:15:13.464Z,26.60
2018-07-04T06:17:59.551Z,27.30
2018-07-04T06:20:45.637Z,28.00
2018-07-04T06:23:31.731Z,28.80
2018-07-04T06:26:17.903Z,28.90
2018-07-04T06:29:05.371Z,28.60
2018-07-04T06:31:52.305Z,29.10
2018-07-04T06:34:38.488Z,29.70
2018-07-04T06:37:24.865Z,30.30
2018-07-04T06:39:52.548Z,29.40
2018-07-04T06:42:21.281Z,28.50
2018-07-04T06:44:50.194Z,28.20
2018-07-04T06:47:18.987Z,27.10
2018-07-04T06:49:46.659Z,27.20
2018-07-04T06:52:14.402Z,28.30
2018-07-04T06:54:43.754Z,29.20
2018-07-04T06:57:11.794Z,30.10
2018-07-04T06:59:39.643Z,30.30
2018-07-04T07:02:12.235Z,31.20
2018-07-04T07:04:53.609Z,31.80
2018-07-04T07:07:39.662Z,32.30
2018-07-04T07:10:26.357Z,32.50
2018-07-04T07:13:13.686Z,31.30
2018-07-04T07:16:00.630Z,31.40
2018-07-04T07:18:48.636Z,32.10
2018-07-04T07:21:35.262Z,32.30
2018-07-04T07:24:22.943Z,32.20
2018-07-04T07:27:10.130Z,33.30
2018-07-04T07:29:57.153Z,34.80
2018-07-04T07:32:46.587Z,34.80
2018-07-04T07:35:32.723Z,35.50
2018-07-04T07:38:18.887Z,35.70
2018-07-04T07:41:04.811Z,35.00
2018-07-04T07:43:50.942Z,35.10
2018-07-04T07:46:37.115Z,36.00
2018-07-04T07:49:23.157Z,35.90
2018-07-04T07:54:49.203Z,34.70
2018-07-04T07:57:35.251Z,35.30
2018-07-04T08:00:21.592Z,37.20
2018-07-04T08:03:07.672Z,36.60
2018-07-04T08:05:53.864Z,35.20
2018-07-04T08:08:39.923Z,34.30
2018-07-04T08:11:26.754Z,33.50
2018-07-04T08:14:12.977Z,33.70
2018-07-04T08:16:53.947Z,34.10
2018-07-04T08:19:39.958Z,34.30
2018-07-04T08:22:26.142Z,35.10
2018-07-04T08:25:12.207Z,36.30
2018-07-04T08:27:58.263Z,38.20
2018-07-04T08:30:44.417Z,37.90
2018-07-04T08:33:31.380Z,35.10
2018-07-04T08:36:18.520Z,34.30
2018-07-04T08:38:58.968Z,33.80
2018-07-04T08:41:45.132Z,35.40
2018-07-04T08:44:31.950Z,36.60
2018-07-04T08:50:02.671Z,37.20
2018-07-04T08:52:49.503Z,37.00
2018-07-04T08:55:36.035Z,36.30
2018-07-04T08:58:23.201Z,37.10
2018-07-04T09:01:09.533Z,37.40
2018-07-04T09:03:56.695Z,38.20
2018-07-04T09:06:38.555Z,38.30
2018-07-04T09:09:24.884Z,38.50
2018-07-04T09:12:11.154Z,38.60
2018-07-04T09:14:51.468Z,38.60
2018-07-04T09:17:37.704Z,38.50
2018-07-04T09:23:04.218Z,38.70
2018-07-04T09:25:50.430Z,38.70
2018-07-04T09:28:31.497Z,37.50
2018-07-04T09:31:17.586Z,36.40
2018-07-04T09:34:03.948Z,37.70
2018-07-04T09:36:51.259Z,37.50
2018-07-04T09:39:37.923Z,35.90
2018-07-04T09:42:18.422Z,35.90
2018-07-04T09:45:04.534Z,35.60
2018-07-04T09:47:50.623Z,35.40
2018-07-04T09:50:37.194Z,36.10
2018-07-04T09:53:23.349Z,36.20
2018-07-04T09:56:09.414Z,35.50
2018-07-04T09:58:55.582Z,34.00
2018-07-04T10:01:41.674Z,33.00
2018-07-04T10:04:28.255Z,32.40
2018-07-04T10:07:15.299Z,31.70
2018-07-04T10:10:02.075Z,30.90
2018-07-04T10:12:48.636Z,29.60
2018-07-04T10:15:34.958Z,28.70
2018-07-04T10:18:15.356Z,28.10
2018-07-04T10:21:01.339Z,27.60
2018-07-04T10:23:47.390Z,26.50
2018-07-04T10:26:33.562Z,25.20
2018-07-04T10:29:19.708Z,24.60
2018-07-04T10:32:06.210Z,24.10
2018-07-04T10:34:52.439Z,23.70
2018-07-04T10:37:38.515Z,23.40
2018-07-04T10:40:18.650Z,23.00
2018-07-04T10:43:04.766Z,22.40
2018-07-04T10:45:51.234Z,22.10
2018-07-04T10:48:37.283Z,22.10
2018-07-04T10:51:23.462Z,22.00
2018-07-04T10:54:09.546Z,21.30
2018-07-04T10:56:55.725Z,20.90
2018-07-04T10:59:41.783Z,20.60
2018-07-04T11:02:27.933Z,20.30
2018-07-04T11:05:13.955Z,19.90
2018-07-04T11:08:00.044Z,19.60
2018-07-04T11:10:46.070Z,19.40
2018-07-04T11:13:32.280Z,19.50
2018-07-04T11:16:19.422Z,19.50
2018-07-04T11:19:05.854Z,19.40
2018-07-04T11:21:52.986Z,19.40
2018-07-04T11:24:38.999Z,19.60
2018-07-04T11:27:25.071Z,19.60
2018-07-04T11:30:11.193Z,19.50
2018-07-04T11:32:57.327Z,19.60
2018-07-04T11:35:43.534Z,19.70
2018-07-04T11:38:29.852Z,19.70
2018-07-04T11:41:16.671Z,19.70
2018-07-04T11:44:02.698Z,19.70
2018-07-04T11:46:30.996Z,19.90
2018-07-04T11:49:00.542Z,20.10
2018-07-04T11:51:28.197Z,20.20
2018-07-04T11:53:56.038Z,20.20
2018-07-04T11:56:23.677Z,20.20
2018-07-04T11:58:51.330Z,20.20
2018-07-04T12:01:19.003Z,20.50
2018-07-04T12:04:05.207Z,20.90
2018-07-04T12:06:51.386Z,21.40
2018-07-04T12:09:19.033Z,22.50
2018-07-04T12:11:46.726Z,23.90
2018-07-04T12:14:14.424Z,25.20
2018-07-04T12:16:42.094Z,26.20
2018-07-04T12:19:09.734Z,27.10
2018-07-04T12:21:38.007Z,28.30
2018-07-04T12:24:05.645Z,29.30
2018-07-04T12:26:33.741Z,30.10
2018-07-04T12:29:01.432Z,29.80
2018-07-04T12:31:29.062Z,29.30
2018-07-04T12:33:57.662Z,29.60
2018-07-04T12:36:25.325Z,29.50
2018-07-04T12:38:53.454Z,30.30
2018-07-04T12:41:21.086Z,30.90
2018-07-04T12:43:48.829Z,32.60
2018-07-04T12:46:16.450Z,34.10
2018-07-04T12:48:44.282Z,35.30
2018-07-04T12:51:12.471Z,35.50
2018-07-04T12:53:40.376Z,35.40
2018-07-04T12:56:26.522Z,35.60
2018-07-04T12:59:12.702Z,33.60
2018-07-04T13:01:58.966Z,34.40
2018-07-04T13:04:45.718Z,35.30
2018-07-04T13:07:31.938Z,35.20
2018-07-04T13:10:19.257Z,35.40
2018-07-04T13:13:06.181Z,35.50
2018-07-04T13:15:53.359Z,35.10
2018-07-04T13:18:39.659Z,34.40
2018-07-04T13:21:26.697Z,33.80
2018-07-04T13:24:14.703Z,34.40
2018-07-04T13:27:01.838Z,34.90
2018-07-04T13:29:48.146Z,35.80
2018-07-04T13:32:34.357Z,36.10
2018-07-04T13:35:20.614Z,32.80
2018-07-04T13:38:01.943Z,34.00
2018-07-04T13:40:47.966Z,36.50
2018-07-04T13:43:28.519Z,36.90
2018-07-04T13:48:54.722Z,35.90
2018-07-04T13:51:40.750Z,36.30
2018-07-04T13:54:26.881Z,36.40
2018-07-04T13:57:12.779Z,37.50
2018-07-04T13:59:58.864Z,38.10
2018-07-04T14:02:45.133Z,35.60
2018-07-04T14:05:31.102Z,36.40
2018-07-04T14:08:11.402Z,35.40
2018-07-04T14:10:57.551Z,33.40
2018-07-04T14:13:43.642Z,34.80
2018-07-04T14:16:29.728Z,34.70
2018-07-04T14:19:15.865Z,33.80
2018-07-04T14:22:01.922Z,32.90
2018-07-04T14:24:48.038Z,31.00
2018-07-04T14:27:34.197Z,31.10
2018-07-04T14:30:20.438Z,30.70
2018-07-04T14:33:06.530Z,30.70
2018-07-04T14:35:52.642Z,30.40
2018-07-04T14:38:39.266Z,29.40
2018-07-04T14:41:25.348Z,29.00
2018-07-04T14:44:12.910Z,28.60
2018-07-04T14:46:59.538Z,28.70
2018-07-04T14:49:48.514Z,28.90
2018-07-04T14:52:35.641Z,28.50
2018-07-04T14:55:15.913Z,28.20
2018-07-04T14:58:02.066Z,28.20
2018-07-04T15:00:48.922Z,28.00
2018-07-04T15:03:35.063Z,27.50
2018-07-04T15:06:21.176Z,26.30
2018-07-04T15:09:08.766Z,25.10
2018-07-04T15:11:54.866Z,24.70
2018-07-04T15:14:41.007Z,24.50
2018-07-04T15:17:27.194Z,24.50
2018-07-04T15:20:13.334Z,25.00
2018-07-04T15:22:59.510Z,25.50
2018-07-04T15:25:45.635Z,26.20
2018-07-04T15:28:31.710Z,26.30
2018-07-04T15:31:17.794Z,26.20
2018-07-04T15:34:03.974Z,26.40
2018-07-04T15:36:49.877Z,25.40
2018-07-04T15:39:35.993Z,25.30
2018-07-04T15:42:22.140Z,25.70
2018-07-04T15:45:08.334Z,25.40
2018-07-04T15:47:54.462Z,25.00
2018-07-04T15:50:40.482Z,25.60
2018-07-04T15:53:26.603Z,26.30
2018-07-04T15:56:12.774Z,27.30
2018-07-04T15:58:58.931Z,28.20
2018-07-04T16:01:45.085Z,28.90
2018-07-04T16:04:31.235Z,29.20
2018-07-04T16:07:17.594Z,29.60
2018-07-04T16:09:58.506Z,29.50
2018-07-04T16:12:44.626Z,29.90
2018-07-04T16:15:30.872Z,29.20
2018-07-04T16:18:16.899Z,28.30
2018-07-04T16:21:03.047Z,28.20
2018-07-04T16:23:49.089Z,28.10
2018-07-04T16:26:35.303Z,28.20
2018-07-04T16:29:21.391Z,28.10
2018-07-04T16:32:07.571Z,28.00
2018-07-04T16:34:53.661Z,27.40
2018-07-04T16:37:39.891Z,26.40
2018-07-04T16:40:25.973Z,25.80
2018-07-04T16:43:12.137Z,26.20
2018-07-04T16:45:58.163Z,26.60
2018-07-04T16:48:44.218Z,27.10
2018-07-04T16:51:30.370Z,27.50
2018-07-04T16:54:17.667Z,27.50
2018-07-04T16:56:58.245Z,27.80
2018-07-04T16:59:44.398Z,27.30
2018-07-04T17:02:30.430Z,27.20
2018-07-04T17:05:16.463Z,27.00
2018-07-04T17:08:02.516Z,27.20
2018-07-04T17:10:48.551Z,26.80
2018-07-04T17:13:34.695Z,26.50
2018-07-04T17:16:20.806Z,26.80
2018-07-04T17:19:06.962Z,26.80
2018-07-04T17:21:52.993Z,27.00
2018-07-04T17:24:39.051Z,26.50
2018-07-04T17:27:25.096Z,27.00
2018-07-04T17:30:11.318Z,27.40
2018-07-04T17:32:57.474Z,27.80
2018-07-04T17:35:43.610Z,27.70
2018-07-04T17:38:11.437Z,26.90
2018-07-04T17:40:57.634Z,26.70
2018-07-04T17:43:44.682Z,26.30
2018-07-04T17:46:31.185Z,26.20
2018-07-04T17:49:17.419Z,25.90
2018-07-04T17:52:03.881Z,25.60
2018-07-04T17:54:51.654Z,25.60
2018-07-04T17:57:38.239Z,25.60
2018-07-04T18:00:24.902Z,25.50
2018-07-04T18:03:11.215Z,25.40
2018-07-04T18:05:58.839Z,25.40
2018-07-04T18:08:40.355Z,25.30
2018-07-04T18:11:26.622Z,25.40
2018-07-04T18:14:12.770Z,25.80
2018-07-04T18:16:58.922Z,26.30
2018-07-04T18:19:45.576Z,26.60
2018-07-04T18:22:31.826Z,26.70
2018-07-04T18:25:18.250Z,26.80
2018-07-04T18:28:04.619Z,26.70
2018-07-04T18:30:52.295Z,26.30
2018-07-04T18:33:39.627Z,25.80
2018-07-04T18:36:25.746Z,25.40
2018-07-04T18:39:12.178Z,24.90
2018-07-04T18:41:58.484Z,24.60
2018-07-04T18:44:26.999Z,24.30
2018-07-04T18:47:13.392Z,24.30
2018-07-04T18:49:59.674Z,24.40
2018-07-04T18:52:40.162Z,24.20
2018-07-04T18:55:26.278Z,24.10
2018-07-04T18:58:14.161Z,24.00
2018-07-04T19:01:00.434Z,23.60
2018-07-04T19:03:47.518Z,23.40
2018-07-04T19:06:27.583Z,23.30
2018-07-04T19:09:15.202Z,23.20
2018-07-04T19:12:01.630Z,23.00
2018-07-04T19:14:48.664Z,22.90
2018-07-04T19:17:35.019Z,22.70
2018-07-04T19:20:15.014Z,23.00
2018-07-04T19:25:41.686Z,23.40
2018-07-04T19:28:27.893Z,23.00
2018-07-04T19:31:14.059Z,22.80
2018-07-04T19:34:00.015Z,22.70
2018-07-04T19:36:46.102Z,22.30
2018-07-04T19:39:32.211Z,22.10
2018-07-04T19:42:18.574Z,21.80
2018-07-04T19:45:05.510Z,21.60
2018-07-04T19:47:51.689Z,21.60
2018-07-04T19:50:34.234Z,21.80
2018-07-04T19:53:15.134Z,21.70
2018-07-04T19:56:01.891Z,21.70
2018-07-04T19:58:48.012Z,21.70
2018-07-04T20:01:34.084Z,21.30
2018-07-04T20:04:21.666Z,21.20
2018-07-04T20:07:08.587Z,21.40
2018-07-04T20:09:56.537Z,21.40
2018-07-04T20:12:36.919Z,21.30
2018-07-04T20:15:23.686Z,21.10
2018-07-04T20:18:09.567Z,20.90
2018-07-04T20:20:55.727Z,20.90
2018-07-04T20:23:41.790Z,20.80
2018-07-04T20:26:27.935Z,20.60
2018-07-04T20:29:14.057Z,20.60
2018-07-04T20:32:00.142Z,20.40
2018-07-04T20:34:40.526Z,20.40
2018-07-04T20:40:06.998Z,20.20
2018-07-04T20:42:53.054Z,20.80
2018-07-04T20:45:39.182Z,21.10
2018-07-04T20:48:26.438Z,21.10
2018-07-04T20:51:13.222Z,20.90
2018-07-04T20:54:00.839Z,20.80
2018-07-04T20:56:47.417Z,20.70
2018-07-04T20:59:34.537Z,20.60
2018-07-04T21:02:21.701Z,20.60
2018-07-04T21:05:08.867Z,20.50
2018-07-04T21:07:55.219Z,20.30
2018-07-04T21:10:42.064Z,20.20
2018-07-04T21:13:28.292Z,20.30
2018-07-04T21:16:14.710Z,20.00
2018-07-04T21:19:01.041Z,19.70
2018-07-04T21:21:47.491Z,19.40
2018-07-04T21:24:34.243Z,19.30
2018-07-04T21:27:21.207Z,19.10
2018-07-04T21:30:07.846Z,19.10
2018-07-04T21:32:47.934Z,19.00
2018-07-04T21:35:34.058Z,18.90
2018-07-04T21:38:20.075Z,18.80
2018-07-04T21:41:06.127Z,18.70
2018-07-04T21:43:52.932Z,18.70
2018-07-04T21:46:33.690Z,18.50
2018-07-04T21:49:20.917Z,18.40
2018-07-04T21:52:08.338Z,18.50
2018-07-04T21:54:55.406Z,18.50
2018-07-04T21:57:41.894Z,18.60
2018-07-04T22:00:28.884Z,18.60
2018-07-04T22:03:16.102Z,18.70
2018-07-04T22:06:03.172Z,18.60
2018-07-04T22:08:49.627Z,18.40
2018-07-04T22:11:37.538Z,18.30
2018-07-04T22:14:30.154Z,18.20
2018-07-04T22:17:17.403Z,18.10
2018-07-04T22:20:03.906Z,18.00
2018-07-04T22:22:50.474Z,18.00
2018-07-04T22:25:37.183Z,17.90
2018-07-04T22:28:24.302Z,17.90
2018-07-04T22:31:10.750Z,18.00
2018-07-04T22:33:56.838Z,18.40
2018-07-04T22:36:43.039Z,18.40
2018-07-04T22:39:29.102Z,18.40
2018-07-04T22:42:15.231Z,18.10
2018-07-04T22:45:01.419Z,18.10
2018-07-04T22:47:48.335Z,18.20
2018-07-04T22:50:34.359Z,18.40
2018-07-04T22:53:20.605Z,18.20
2018-07-04T22:56:06.715Z,18.10
2018-07-04T22:58:53.511Z,18.00
2018-07-04T23:01:39.760Z,17.80
2018-07-04T23:04:26.078Z,17.60
2018-07-04T23:07:12.347Z,17.50
2018-07-04T23:09:58.918Z,17.40
2018-07-04T23:12:45.767Z,17.30
2018-07-04T23:15:25.930Z,17.30
2018-07-04T23:18:12.074Z,17.30
2018-07-04T23:20:58.286Z,17.30
2018-07-04T23:23:44.482Z,17.30
2018-07-04T23:26:31.702Z,17.40
2018-07-04T23:29:17.851Z,17.30
2018-07-04T23:32:04.070Z,17.70
2018-07-04T23:34:50.270Z,17.80
2018-07-04T23:37:36.502Z,17.60
2018-07-04T23:40:22.846Z,17.40
2018-07-04T23:43:09.101Z,17.30
2018-07-04T23:45:55.207Z,17.20
2018-07-04T23:48:41.270Z,17.30
2018-07-04T23:51:27.314Z,17.20
2018-07-04T23:54:13.963Z,17.40
2018-07-04T23:56:59.996Z,17.60
2018-07-04T23:59:46.363Z,17.30
